Time;durP1;ratioP1;P1;durP2;ratioP2;P2;SDS_P1;SDS_P2;PMS_P1;PMS_P2;Temp;Humidity;BMP_temperature;BMP_pressure;BME280_temperature;BME280_humidity;BME280_pressure;Samples;Min_cycle;Max_cycle;Signal;HPM_P1;HPM_P2
2023/08/15 00:01:49;;;;;;;0.70;0.70;;;;;;;26.80;44.78;99495.97;5049802;28;20200;-68
2023/08/15 00:04:16;;;;;;;0.60;0.60;;;;;;;26.89;44.79;99497.72;5049842;28;20299;-67
2023/08/15 00:06:43;;;;;;;1.10;1.00;;;;;;;26.91;44.36;99508.97;5051073;28;20205;-67
2023/08/15 00:09:10;;;;;;;0.60;0.60;;;;;;;26.91;45.02;99506.31;5053323;28;20208;-67
2023/08/15 00:11:38;;;;;;;0.83;0.83;;;;;;;26.92;44.96;99505.31;5053616;28;20196;-67
2023/08/15 00:14:05;;;;;;;1.23;0.93;;;;;;;26.89;44.62;99500.38;5053903;28;20192;-67
2023/08/15 00:16:31;;;;;;;0.90;0.90;;;;;;;26.90;44.18;99507.28;5053691;28;20254;-67
2023/08/15 00:18:58;;;;;;;0.80;0.80;;;;;;;26.88;45.04;99503.16;5053659;28;20193;-67
2023/08/15 00:21:25;;;;;;;1.17;1.03;;;;;;;26.86;44.80;99498.03;5053444;28;20639;-67
2023/08/15 00:23:52;;;;;;;0.87;0.87;;;;;;;26.83;44.25;99500.97;5053311;28;20232;-67
2023/08/15 00:26:18;;;;;;;0.90;0.90;;;;;;;26.83;45.08;99495.69;5053500;28;20223;-67
2023/08/15 00:28:46;;;;;;;1.30;0.53;;;;;;;26.83;45.53;99495.69;5053346;28;20205;-67
2023/08/15 00:31:13;;;;;;;0.80;0.80;;;;;;;26.84;45.63;99501.78;5053558;28;20669;-67
2023/08/15 00:33:40;;;;;;;0.77;0.77;;;;;;;26.85;44.95;99501.63;5053328;28;20192;-67
2023/08/15 00:36:08;;;;;;;0.70;0.70;;;;;;;26.86;45.87;99505.91;5053178;28;20283;-67
2023/08/15 00:38:34;;;;;;;0.50;0.50;;;;;;;26.86;45.26;99500.66;5053458;28;20569;-67
2023/08/15 00:41:01;;;;;;;0.87;0.70;;;;;;;26.88;45.75;99503.16;5052357;28;20622;-67
2023/08/15 00:43:28;;;;;;;1.00;1.00;;;;;;;26.90;45.61;99507.28;5053088;28;20661;-67
2023/08/15 00:45:56;;;;;;;0.83;0.83;;;;;;;26.90;44.86;99504.66;5052951;28;20197;-67
2023/08/15 00:48:29;;;;;;;0.70;0.70;;;;;;;26.91;46.22;99502.88;5053113;28;20250;-67
2023/08/15 00:50:57;;;;;;;1.73;1.10;;;;;;;26.89;45.83;99499.53;5052751;28;20201;-67
2023/08/15 00:53:24;;;;;;;0.67;0.67;;;;;;;26.89;45.46;99505.63;5053502;28;20685;-68
2023/08/15 00:55:55;;;;;;;0.70;0.70;;;;;;;26.90;45.60;99496.78;5053165;28;20589;-68
2023/08/15 00:58:23;;;;;;;1.10;0.93;;;;;;;26.89;45.55;99489.00;5052983;28;20208;-67
2023/08/15 01:00:51;;;;;;;1.10;0.70;;;;;;;26.91;45.77;99493.16;5052885;28;20204;-67
2023/08/15 01:03:20;;;;;;;2.80;0.90;;;;;;;26.80;46.14;99474.91;5052445;28;20216;-67
2023/08/15 01:05:48;;;;;;;0.67;0.67;;;;;;;26.88;46.06;99493.44;5052841;28;20580;-68
2023/08/15 01:08:15;;;;;;;6.80;0.80;;;;;;;26.89;46.58;99489.00;5051601;28;20212;-67
2023/08/15 01:10:43;;;;;;;0.60;0.60;;;;;;;26.90;46.67;99483.63;5052945;28;20197;-67
2023/08/15 01:13:19;;;;;;;0.63;0.63;;;;;;;26.83;47.09;99469.38;5052507;28;20250;-67
2023/08/15 01:15:50;;;;;;;2.90;0.77;;;;;;;26.89;46.28;99481.94;5052691;28;20196;-67
2023/08/15 01:18:24;;;;;;;1.50;1.20;;;;;;;26.87;46.21;99486.53;5052050;28;20292;-67
2023/08/15 01:20:54;;;;;;;0.77;0.70;;;;;;;26.84;46.25;99484.22;5052562;28;20193;-67
2023/08/15 01:23:28;;;;;;;3.60;0.87;;;;;;;26.81;46.89;99479.25;5052037;28;20594;-67
2023/08/15 01:25:56;;;;;;;0.70;0.70;;;;;;;26.85;46.91;99483.22;5052597;28;20188;-67
2023/08/15 01:28:23;;;;;;;0.77;0.77;;;;;;;26.77;47.45;99469.94;5051895;28;20641;-67
2023/08/15 01:30:56;;;;;;;1.50;1.23;;;;;;;26.72;47.11;99459.03;5052574;28;20669;-67
2023/08/15 01:33:30;;;;;;;1.43;1.33;;;;;;;26.83;47.42;99474.66;5052330;28;20295;-67
2023/08/15 01:36:03;;;;;;;0.80;0.80;;;;;;;26.82;47.32;99470.34;5052441;28;20236;-67
2023/08/15 01:38:36;;;;;;;0.63;0.63;;;;;;;26.84;47.79;99465.78;5051280;28;20227;-67
2023/08/15 01:41:06;;;;;;;0.60;0.60;;;;;;;26.84;48.58;99460.53;5052167;28;20673;-67
2023/08/15 01:43:36;;;;;;;1.07;1.07;;;;;;;26.82;49.08;99459.84;5051179;28;20589;-67
2023/08/15 01:46:03;;;;;;;0.80;0.80;;;;;;;26.80;48.89;99453.03;5051050;28;20200;-67
2023/08/15 01:48:30;;;;;;;0.80;0.80;;;;;;;26.75;48.78;99447.41;5052031;28;20201;-67
2023/08/15 01:50:57;;;;;;;1.90;1.00;;;;;;;26.75;49.21;99445.59;5052155;28;20683;-67
2023/08/15 01:53:24;;;;;;;0.50;0.50;;;;;;;26.78;49.03;99449.75;5051562;28;20223;-67
2023/08/15 01:55:51;;;;;;;0.80;0.80;;;;;;;26.76;49.25;99443.78;5052049;28;20205;-67
2023/08/15 01:58:19;;;;;;;1.13;1.13;;;;;;;26.76;49.42;99452.50;5051671;28;20200;-69
2023/08/15 02:00:46;;;;;;;2.07;0.80;;;;;;;26.76;50.22;99438.50;5051648;28;20212;-67
2023/08/15 02:03:13;;;;;;;2.37;0.77;;;;;;;26.73;48.87;99447.53;5051515;28;20220;-67
2023/08/15 02:05:40;;;;;;;0.97;0.97;;;;;;;26.70;48.14;99452.25;5051783;28;20204;-67
2023/08/15 02:08:07;;;;;;;0.70;0.70;;;;;;;26.68;48.94;99448.97;5051483;28;20267;-68
2023/08/15 02:10:33;;;;;;;1.07;0.67;;;;;;;26.66;49.52;99443.84;5051817;28;20215;-67
2023/08/15 02:13:00;;;;;;;0.80;0.80;;;;;;;26.68;50.02;99439.28;5051898;28;20196;-67
2023/08/15 02:15:28;;;;;;;2.63;1.00;;;;;;;26.63;50.72;99447.59;5051097;28;20635;-67
2023/08/15 02:17:55;;;;;;;0.80;0.80;;;;;;;26.55;51.79;99441.41;5051898;28;20208;-67
2023/08/15 02:20:22;;;;;;;1.17;1.10;;;;;;;26.51;52.74;99447.94;5051239;28;20204;-67
2023/08/15 02:22:48;;;;;;;0.83;0.83;;;;;;;26.47;52.88;99450.03;5050788;28;20224;-67
2023/08/15 02:25:15;;;;;;;0.90;0.90;;;;;;;26.43;52.04;99445.22;5050946;28;20258;-67
2023/08/15 02:27:42;;;;;;;1.10;1.00;;;;;;;26.35;53.13;99447.72;5051387;28;20199;-67
2023/08/15 02:30:09;;;;;;;0.73;0.73;;;;;;;26.33;52.23;99447.06;5050314;28;20196;-67
2023/08/15 02:32:37;;;;;;;1.00;1.00;;;;;;;26.31;52.92;99441.09;5051091;28;20205;-67
2023/08/15 02:35:05;;;;;;;1.20;1.10;;;;;;;26.33;52.26;99449.69;5050841;28;20250;-67
2023/08/15 02:37:32;;;;;;;0.70;0.70;;;;;;;26.31;54.30;99443.72;5050968;28;20219;-67
2023/08/15 02:39:58;;;;;;;0.60;0.60;;;;;;;26.27;53.53;99447.66;5051013;28;20203;-67
2023/08/15 02:42:25;;;;;;;1.13;0.83;;;;;;;26.26;53.85;99445.97;5050706;28;20307;-67
2023/08/15 02:44:52;;;;;;;0.60;0.60;;;;;;;26.26;54.62;99452.06;5050800;28;20254;-67
2023/08/15 02:47:19;;;;;;;0.77;0.50;;;;;;;26.28;53.71;99451.91;5050721;28;20237;-67
2023/08/15 02:49:47;;;;;;;0.80;0.80;;;;;;;26.26;52.14;99453.88;5050755;28;20200;-67
2023/08/15 02:52:14;;;;;;;1.20;1.20;;;;;;;26.19;53.03;99458.03;5050348;28;20205;-67
2023/08/15 02:54:40;;;;;;;1.37;0.93;;;;;;;26.14;52.66;99458.41;5051129;28;20192;-67
2023/08/15 02:57:07;;;;;;;0.57;0.57;;;;;;;26.09;53.87;99453.63;5050472;28;20680;-67
2023/08/15 02:59:34;;;;;;;0.87;0.70;;;;;;;26.11;53.86;99456.91;5050525;28;20294;-67
2023/08/15 03:02:01;;;;;;;0.73;0.73;;;;;;;26.13;53.79;99458.59;5050366;28;20208;-67
2023/08/15 03:10:32;;;;;;;1.10;1.10;;;;;;;25.99;54.04;99458.06;5047982;28;20215;-68
2023/08/15 03:12:59;;;;;;;1.27;1.10;;;;;;;25.93;54.64;99458.63;5048833;28;20193;-67
2023/08/15 03:15:26;;;;;;;2.37;1.03;;;;;;;25.83;54.38;99455.19;5050196;28;20323;-67
2023/08/15 03:17:52;;;;;;;1.07;1.07;;;;;;;25.82;54.67;99461.41;5050457;28;20205;-67
2023/08/15 03:20:19;;;;;;;0.70;0.70;;;;;;;25.82;56.68;99460.56;5050196;28;20270;-67
2023/08/15 03:22:46;;;;;;;1.23;0.97;;;;;;;25.85;56.76;99466.38;5049917;28;20801;-67
2023/08/15 03:25:14;;;;;;;1.47;1.00;;;;;;;25.88;55.17;99466.09;5049724;28;20193;-67
2023/08/15 03:27:41;;;;;;;0.83;0.83;;;;;;;25.90;55.05;99464.19;5050495;28;20262;-67
2023/08/15 03:30:08;;;;;;;2.73;1.57;;;;;;;25.91;55.73;99465.00;5048404;28;20201;-68
2023/08/15 03:32:35;;;;;;;1.33;1.20;;;;;;;25.94;56.17;99464.72;5049405;28;20259;-67
2023/08/15 03:35:02;;;;;;;0.80;0.80;;;;;;;25.97;56.94;99465.28;5049356;28;20661;-67
2023/08/15 03:37:28;;;;;;;0.87;0.87;;;;;;;25.99;56.75;99459.84;5049953;28;20205;-68
2023/08/15 03:39:55;;;;;;;1.40;1.03;;;;;;;26.01;56.46;99461.38;5049753;28;20197;-67
2023/08/15 03:42:23;;;;;;;2.13;1.03;;;;;;;25.98;56.53;99456.41;5049210;28;20770;-66
2023/08/15 03:44:50;;;;;;;2.27;1.27;;;;;;;26.08;56.29;99470.34;5049812;28;20224;-65
2023/08/15 03:47:16;;;;;;;1.50;1.10;;;;;;;26.14;56.48;99476.81;5049874;28;20196;-66
2023/08/15 03:49:43;;;;;;;1.80;1.20;;;;;;;26.14;56.33;99476.00;5049941;28;20193;-65
2023/08/15 03:52:10;;;;;;;1.53;1.37;;;;;;;26.04;55.69;99461.06;5049187;28;20387;-66
2023/08/15 03:54:37;;;;;;;1.40;0.60;;;;;;;26.15;55.89;99475.03;5048764;28;20661;-66
2023/08/15 03:57:04;;;;;;;1.53;1.13;;;;;;;26.15;55.97;99473.22;5049153;28;20201;-66
2023/08/15 03:59:32;;;;;;;1.03;1.03;;;;;;;25.99;57.08;99452.81;5047967;28;20258;-66
2023/08/15 04:01:58;;;;;;;2.33;1.00;;;;;;;26.09;55.95;99469.38;5049519;28;20197;-65
2023/08/15 04:04:25;;;;;;;1.10;1.10;;;;;;;26.08;55.90;99466.88;5049551;28;20649;-66
2023/08/15 04:06:52;;;;;;;1.80;1.20;;;;;;;26.04;56.39;99471.59;5049402;28;20197;-66
2023/08/15 04:09:18;;;;;;;0.83;0.83;;;;;;;26.04;56.50;99468.97;5049435;28;20201;-66
2023/08/15 04:11:45;;;;;;;4.40;0.93;;;;;;;26.07;56.44;99476.56;5049678;28;20250;-66
2023/08/15 04:14:12;;;;;;;3.63;1.17;;;;;;;26.07;56.63;99479.19;5049074;28;20204;-66
2023/08/15 04:16:40;;;;;;;0.90;0.90;;;;;;;26.04;56.88;99476.84;5045649;28;20193;-66
2023/08/15 04:19:06;;;;;;;1.90;0.83;;;;;;;26.02;56.60;99473.53;5049231;28;20265;-65
2023/08/15 04:21:33;;;;;;;0.73;0.73;;;;;;;26.00;57.25;99472.03;5049297;28;20243;-66
2023/08/15 04:24:00;;;;;;;0.83;0.83;;;;;;;25.98;57.57;99477.41;5049110;28;20216;-66
2023/08/15 04:26:27;;;;;;;1.20;1.20;;;;;;;26.00;57.22;99480.75;5048805;28;20258;-66
2023/08/15 04:28:54;;;;;;;1.23;1.13;;;;;;;25.99;58.15;99484.34;5049693;28;20639;-66
2023/08/15 04:31:20;;;;;;;0.83;0.83;;;;;;;26.00;58.14;99488.63;5049238;28;20205;-66
2023/08/15 04:33:48;;;;;;;1.10;1.00;;;;;;;26.02;58.01;99494.56;5049643;28;20193;-66
2023/08/15 04:36:15;;;;;;;0.90;0.90;;;;;;;26.01;58.52;99492.88;5049072;28;20578;-66
2023/08/15 04:38:42;;;;;;;0.90;0.90;;;;;;;25.94;57.78;99489.19;5049923;28;20262;-66
2023/08/15 04:41:08;;;;;;;3.50;1.10;;;;;;;25.87;58.50;99493.34;5045096;28;20255;-65
2023/08/15 04:43:35;;;;;;;1.47;1.37;;;;;;;25.81;59.24;99496.53;5048485;28;20630;-66
2023/08/15 04:46:02;;;;;;;0.90;0.90;;;;;;;25.83;60.66;99497.22;5046414;28;20208;-65
2023/08/15 04:48:28;;;;;;;0.80;0.80;;;;;;;25.85;59.61;99507.59;5045950;28;20261;-64
2023/08/15 04:50:56;;;;;;;1.30;1.20;;;;;;;25.79;57.96;99514.22;5046660;28;20287;-64
2023/08/15 04:53:23;;;;;;;1.17;1.17;;;;;;;25.74;59.41;99505.94;5043544;28;20674;-64
2023/08/15 04:55:50;;;;;;;0.87;0.87;;;;;;;25.74;59.58;99500.69;5051137;28;20608;-65
2023/08/15 04:58:17;;;;;;;0.87;0.87;;;;;;;25.77;58.79;99504.84;5051151;28;20251;-64
2023/08/15 05:00:43;;;;;;;0.90;0.90;;;;;;;25.79;60.39;99508.97;5049495;28;20209;-65
2023/08/15 05:03:10;;;;;;;3.33;0.97;;;;;;;25.81;58.62;99511.47;5045896;28;20282;-65
2023/08/15 05:05:37;;;;;;;1.43;1.33;;;;;;;25.71;58.99;99508.84;5050066;28;20205;-65
2023/08/15 05:08:07;;;;;;;6.10;1.47;;;;;;;25.54;58.94;99499.03;5050580;28;20209;-64
2023/08/15 05:10:33;;;;;;;0.93;0.93;;;;;;;25.42;59.58;99505.38;5049112;28;20688;-64
2023/08/15 05:13:00;;;;;;;0.80;0.80;;;;;;;25.34;60.29;99513.09;5052053;28;20255;-64
2023/08/15 05:15:27;;;;;;;3.63;1.20;;;;;;;25.32;60.75;99515.88;5049754;28;20250;-65
2023/08/15 05:17:54;;;;;;;1.33;1.20;;;;;;;25.31;60.58;99505.50;5051207;28;20216;-65
2023/08/15 05:20:21;;;;;;;3.00;1.00;;;;;;;25.22;60.92;99503.69;5048544;28;20212;-65
2023/08/15 05:22:49;;;;;;;1.00;1.00;;;;;;;25.18;62.02;99510.16;5049416;28;20284;-65
2023/08/15 05:25:17;;;;;;;1.03;1.03;;;;;;;25.23;62.50;99508.81;5047593;28;20275;-65
2023/08/15 05:27:44;;;;;;;0.90;0.90;;;;;;;25.28;63.09;99508.38;5048908;28;20240;-65
2023/08/15 05:30:12;;;;;;;1.07;1.07;;;;;;;25.37;62.31;99510.19;5050265;28;20263;-65
2023/08/15 05:32:38;;;;;;;1.33;1.23;;;;;;;25.43;62.73;99512.25;5049650;28;20247;-64
2023/08/15 05:35:06;;;;;;;1.00;1.00;;;;;;;25.47;62.92;99514.47;5049984;28;20213;-65
2023/08/15 05:37:32;;;;;;;1.27;1.20;;;;;;;25.53;62.65;99513.13;5050643;28;20209;-65
2023/08/15 05:39:59;;;;;;;1.30;1.30;;;;;;;25.53;62.62;99502.63;5049654;28;20211;-65
2023/08/15 05:42:27;;;;;;;0.97;0.97;;;;;;;25.64;60.92;99520.03;5051136;28;20204;-65
2023/08/15 05:44:54;;;;;;;2.73;1.03;;;;;;;25.65;61.13;99512.03;5049826;28;20268;-65
2023/08/15 05:47:21;;;;;;;1.30;1.20;;;;;;;25.66;61.58;99518.09;5051002;28;20263;-65
2023/08/15 05:49:48;;;;;;;0.63;0.63;;;;;;;25.68;61.86;99511.75;5050919;28;20735;-65
2023/08/15 05:52:14;;;;;;;1.30;1.23;;;;;;;25.64;60.39;99510.38;5051334;28;20216;-66
2023/08/15 05:54:41;;;;;;;1.17;1.10;;;;;;;25.59;60.18;99512.56;5050022;28;20197;-66
2023/08/15 05:57:08;;;;;;;1.33;1.00;;;;;;;25.54;60.72;99512.16;5050607;28;20262;-68
2023/08/15 05:59:36;;;;;;;0.90;0.90;;;;;;;25.51;61.31;99512.44;5050090;28;20205;-69
2023/08/15 06:02:02;;;;;;;0.80;0.80;;;;;;;25.52;61.35;99508.88;5051051;28;20208;-68
2023/08/15 06:04:29;;;;;;;4.87;0.93;;;;;;;25.55;61.45;99511.22;5049487;28;20882;-68
2023/08/15 06:06:56;;;;;;;1.13;1.13;;;;;;;25.53;60.78;99506.09;5049253;28;20246;-67
2023/08/15 06:09:23;;;;;;;2.30;1.20;;;;;;;25.53;61.15;99515.75;5049959;28;20661;-68
2023/08/15 06:11:50;;;;;;;1.00;1.00;;;;;;;25.49;61.08;99506.47;5050700;28;20660;-68
2023/08/15 06:14:18;;;;;;;0.90;0.90;;;;;;;25.41;61.45;99504.53;5050759;28;20203;-67
2023/08/15 06:16:47;;;;;;;0.80;0.80;;;;;;;25.37;61.16;99502.31;5048975;28;20255;-68
2023/08/15 06:19:13;;;;;;;1.00;1.00;;;;;;;25.28;61.98;99492.63;5049433;28;20258;-67
2023/08/15 06:21:41;;;;;;;0.90;0.90;;;;;;;25.25;61.34;99482.41;5049382;28;20201;-67
2023/08/15 06:24:08;;;;;;;3.50;0.90;;;;;;;25.34;61.35;99502.59;5049597;28;20311;-66
2023/08/15 06:26:35;;;;;;;2.33;0.90;;;;;;;25.38;61.90;99506.59;5049958;28;20205;-67
2023/08/15 06:29:02;;;;;;;1.33;1.23;;;;;;;25.37;61.39;99503.16;5049269;28;20258;-66
2023/08/15 06:31:29;;;;;;;0.90;0.90;;;;;;;25.40;61.26;99504.66;5050123;28;20207;-67
2023/08/15 06:33:57;;;;;;;0.77;0.77;;;;;;;25.38;61.57;99504.81;5050528;28;20254;-67
2023/08/15 06:36:24;;;;;;;0.70;0.70;;;;;;;25.40;61.50;99502.03;5050031;28;20200;-67
2023/08/15 06:38:50;;;;;;;0.93;0.93;;;;;;;25.38;61.97;99498.72;5050981;28;20739;-67
2023/08/15 06:41:17;;;;;;;0.97;0.97;;;;;;;25.37;62.10;99502.31;5049630;28;20212;-67
2023/08/15 06:43:44;;;;;;;1.27;1.27;;;;;;;25.37;61.71;99502.31;5048886;28;20201;-67
2023/08/15 06:46:12;;;;;;;1.03;0.90;;;;;;;25.19;62.72;99472.47;5047736;28;20204;-67
2023/08/15 06:48:39;;;;;;;0.80;0.77;;;;;;;25.27;62.69;99486.56;5048750;28;20677;-67
2023/08/15 06:51:07;;;;;;;3.43;1.27;;;;;;;25.31;62.47;99503.69;5045060;28;20204;-67
2023/08/15 06:53:34;;;;;;;0.77;0.77;;;;;;;25.34;63.16;99497.34;5047605;28;20208;-67
2023/08/15 06:56:01;;;;;;;0.70;0.70;;;;;;;25.36;63.63;99495.44;5048501;28;20787;-67
2023/08/15 06:58:28;;;;;;;0.97;0.97;;;;;;;25.41;64.08;99488.78;5048377;28;20220;-67
2023/08/15 07:00:55;;;;;;;2.27;0.77;;;;;;;25.44;64.78;99482.44;5046507;28;20647;-67
2023/08/15 07:03:22;;;;;;;0.80;0.80;;;;;;;25.49;63.68;99490.72;5048458;28;20212;-66
2023/08/15 07:05:49;;;;;;;5.00;1.00;;;;;;;25.52;63.75;99490.47;5048512;28;20216;-67
2023/08/15 07:08:17;;;;;;;1.07;0.87;;;;;;;25.51;64.12;99484.41;5049033;28;20208;-66
2023/08/15 07:10:44;;;;;;;0.93;0.93;;;;;;;25.52;65.04;99488.69;5047880;28;20227;-66
2023/08/15 07:13:11;;;;;;;1.57;0.90;;;;;;;25.56;64.63;99491.84;5049446;28;20217;-67
2023/08/15 07:15:38;;;;;;;0.97;0.97;;;;;;;25.56;65.20;99491.84;5048695;28;20294;-66
2023/08/15 07:18:05;;;;;;;1.27;0.60;;;;;;;25.57;65.37;99483.00;5047442;28;20287;-67
2023/08/15 07:20:32;;;;;;;0.70;0.70;;;;;;;25.62;65.54;99485.22;5048513;28;20676;-67
2023/08/15 07:22:59;;;;;;;1.10;1.00;;;;;;;25.61;66.91;99483.56;5047585;28;20228;-67
2023/08/15 07:25:27;;;;;;;0.80;0.80;;;;;;;25.68;65.01;99482.88;5048624;28;20217;-67
2023/08/15 07:27:54;;;;;;;1.00;0.77;;;;;;;25.70;64.17;99480.94;5049070;28;20204;-67
2023/08/15 07:30:21;;;;;;;0.60;0.60;;;;;;;25.70;62.36;99478.31;5049505;28;20200;-67
2023/08/15 07:32:48;;;;;;;1.60;1.30;;;;;;;25.72;62.11;99480.81;5046157;28;21090;-70
2023/08/15 07:35:14;;;;;;;0.60;0.60;;;;;;;25.71;61.58;99479.13;5044383;28;20197;-67
2023/08/15 07:37:41;;;;;;;1.27;1.00;;;;;;;25.71;61.83;99479.97;5046814;28;20209;-68
2023/08/15 07:40:09;;;;;;;1.27;0.93;;;;;;;25.70;61.90;99466.97;5042244;28;20631;-67
2023/08/15 07:42:38;;;;;;;1.87;0.90;;;;;;;25.79;62.06;99476.63;5048585;28;20707;-67
2023/08/15 07:45:07;;;;;;;0.90;0.90;;;;;;;25.78;63.17;99480.25;5048492;28;20240;-67
2023/08/15 07:47:36;;;;;;;1.03;0.87;;;;;;;25.77;62.09;99484.66;5049005;28;20302;-67
2023/08/15 07:50:16;;;;;;;1.33;1.23;;;;;;;25.78;61.45;99486.31;5049599;28;20207;-66
2023/08/15 07:52:43;;;;;;;7.77;2.70;;;;;;;25.81;62.20;99486.03;5049073;28;20199;-67
2023/08/15 07:55:10;;;;;;;1.17;1.10;;;;;;;25.72;62.10;99460.59;5049462;28;20208;-67
2023/08/15 07:57:38;;;;;;;0.83;0.83;;;;;;;25.81;63.01;99475.53;5050193;28;20196;-68
2023/08/15 08:00:08;;;;;;;2.23;1.00;;;;;;;25.88;63.88;99479.22;5050008;28;20201;-68
2023/08/15 08:02:35;;;;;;;1.50;1.40;;;;;;;25.90;63.14;99471.22;5047064;28;20208;-67
2023/08/15 08:05:06;;;;;;;1.17;1.10;;;;;;;25.91;63.64;99473.69;5048750;28;20224;-67
2023/08/15 08:07:33;;;;;;;1.27;1.27;;;;;;;25.91;64.10;99471.06;5048144;28;20319;-67
2023/08/15 08:10:00;;;;;;;1.13;1.13;;;;;;;25.95;64.59;99467.19;5048098;28;20227;-67
2023/08/15 08:12:27;;;;;;;1.70;1.00;;;;;;;25.95;63.72;99469.81;5049203;28;20262;-67
2023/08/15 08:14:55;;;;;;;2.07;1.20;;;;;;;25.94;63.94;99468.19;5048845;28;20200;-67
2023/08/15 08:17:22;;;;;;;0.90;0.87;;;;;;;25.95;64.86;99461.94;5049083;28;20755;-67
2023/08/15 08:19:49;;;;;;;1.03;1.03;;;;;;;25.95;64.11;99466.34;5049271;28;20665;-67
2023/08/15 08:22:16;;;;;;;0.80;0.80;;;;;;;25.94;64.32;99465.56;5048480;28;20237;-70
2023/08/15 08:24:43;;;;;;;0.63;0.63;;;;;;;25.91;64.59;99465.00;5048440;28;20221;-68
2023/08/15 08:27:10;;;;;;;0.97;0.80;;;;;;;25.88;64.24;99471.34;5047738;28;20255;-71
2023/08/15 08:29:36;;;;;;;0.70;0.70;;;;;;;25.84;65.45;99462.13;5051539;28;20262;-70
2023/08/15 08:32:04;;;;;;;3.80;0.60;;;;;;;25.87;65.45;99464.47;5051989;28;20211;-69
2023/08/15 08:34:31;;;;;;;2.60;1.23;;;;;;;25.87;65.53;99467.09;5048480;28;20264;-69
2023/08/15 08:36:58;;;;;;;0.93;0.93;;;;;;;25.89;64.98;99467.75;5052253;28;20209;-68
2023/08/15 08:39:25;;;;;;;1.20;0.93;;;;;;;25.89;64.41;99456.41;5051552;28;20631;-68
2023/08/15 08:41:51;;;;;;;0.83;0.80;;;;;;;25.90;63.33;99461.56;5052046;28;20212;-68
2023/08/15 08:44:20;;;;;;;0.63;0.63;;;;;;;25.87;62.94;99459.22;5052656;28;20769;-67
2023/08/15 08:46:47;;;;;;;1.20;1.07;;;;;;;25.86;61.99;99462.78;5052643;28;20614;-65
2023/08/15 08:49:17;;;;;;;0.70;0.70;;;;;;;25.87;62.50;99461.00;5052444;28;20204;-69
2023/08/15 08:51:45;;;;;;;5.87;0.77;;;;;;;25.90;62.03;99458.09;5047111;28;20201;-70
2023/08/15 08:54:11;;;;;;;2.33;1.27;;;;;;;25.92;61.92;99462.22;5051596;28;20205;-70
2023/08/15 08:56:43;;;;;;;0.87;0.83;;;;;;;25.91;60.40;99463.19;5053186;28;20282;-70
2023/08/15 08:59:12;;;;;;;0.83;0.70;;;;;;;25.91;60.54;99455.31;5052603;28;20262;-69
2023/08/15 09:01:40;;;;;;;1.07;1.00;;;;;;;25.93;59.69;99452.56;5053157;28;20259;-69
2023/08/15 09:04:06;;;;;;;1.07;1.07;;;;;;;25.96;60.34;99460.97;5052505;28;20270;-69
2023/08/15 09:06:36;;;;;;;0.90;0.90;;;;;;;25.99;60.17;99463.31;5051819;28;20220;-70
2023/08/15 09:09:03;;;;;;;0.80;0.73;;;;;;;26.03;60.27;99469.94;5047890;28;20299;-68
2023/08/15 09:11:34;;;;;;;0.73;0.70;;;;;;;26.06;59.15;99474.91;5050551;28;20232;-68
2023/08/15 09:14:04;;;;;;;0.80;0.80;;;;;;;26.07;59.62;99470.50;5049428;28;20215;-69
2023/08/15 09:16:31;;;;;;;2.97;1.13;;;;;;;26.08;59.48;99467.72;5050712;28;20235;-69
2023/08/15 09:19:01;;;;;;;1.90;1.10;;;;;;;26.09;60.73;99469.38;5051445;28;20649;-69
2023/08/15 09:21:28;;;;;;;0.60;0.60;;;;;;;26.09;60.11;99472.00;5050701;28;20201;-69
2023/08/15 09:23:57;;;;;;;1.10;1.10;;;;;;;26.13;60.46;99477.81;5051781;28;20293;-70
2023/08/15 09:26:25;;;;;;;2.30;0.93;;;;;;;26.15;60.58;99467.97;5051508;28;20303;-69
2023/08/15 09:28:52;;;;;;;2.10;0.90;;;;;;;26.18;60.86;99467.72;5046890;28;20236;-69
2023/08/15 09:31:19;;;;;;;0.53;0.53;;;;;;;26.13;60.58;99453.31;5050502;28;20266;-67
2023/08/15 09:33:46;;;;;;;0.93;0.83;;;;;;;26.30;59.78;99471.00;5050130;28;20227;-69
2023/08/15 09:36:14;;;;;;;1.17;1.07;;;;;;;26.33;60.33;99465.47;5046465;28;20198;-69
2023/08/15 09:38:41;;;;;;;1.37;1.23;;;;;;;26.37;61.16;99462.38;5049652;28;20208;-69
2023/08/15 09:41:11;;;;;;;1.03;1.03;;;;;;;26.33;59.75;99470.72;5046899;28;20201;-70
2023/08/15 09:43:49;;;;;;;1.20;1.10;;;;;;;26.33;59.21;99460.22;5048546;28;20283;-69
2023/08/15 09:46:17;;;;;;;0.87;0.87;;;;;;;26.35;59.41;99458.25;5050557;28;20228;-69
2023/08/15 09:48:45;;;;;;;1.17;1.17;;;;;;;26.38;59.49;99468.47;5051213;28;20205;-69
2023/08/15 09:51:14;;;;;;;0.70;0.70;;;;;;;26.39;60.15;99464.88;5050945;28;20299;-69
2023/08/15 09:53:42;;;;;;;0.87;0.87;;;;;;;26.40;60.14;99471.78;5051427;28;20193;-69
2023/08/15 09:56:11;;;;;;;1.50;0.80;;;;;;;26.30;58.83;99448.16;5050445;28;20204;-69
2023/08/15 09:58:38;;;;;;;1.17;1.07;;;;;;;26.40;60.00;99464.72;5050889;28;20200;-68
2023/08/15 10:01:07;;;;;;;0.77;0.70;;;;;;;26.44;59.51;99467.91;5050066;28;20201;-68
2023/08/15 10:03:37;;;;;;;1.03;1.00;;;;;;;26.53;58.17;99469.66;5050569;28;20226;-68
2023/08/15 10:06:07;;;;;;;1.10;0.97;;;;;;;26.57;58.78;99463.97;5048183;28;20252;-68
2023/08/15 10:08:36;;;;;;;0.73;0.73;;;;;;;26.62;58.46;99460.91;5049504;28;20661;-68
2023/08/15 10:11:04;;;;;;;0.70;0.70;;;;;;;26.64;59.00;99458.94;5049492;28;20565;-68
2023/08/15 10:13:35;;;;;;;3.07;1.00;;;;;;;26.73;60.37;99459.84;5046262;28;20193;-68
2023/08/15 10:16:03;;;;;;;0.93;0.93;;;;;;;26.76;61.77;99467.44;5049212;28;20554;-68
2023/08/15 10:18:31;;;;;;;1.90;1.07;;;;;;;26.80;62.28;99459.13;5047642;28;20671;-69
2023/08/15 10:20:59;;;;;;;1.23;1.10;;;;;;;26.80;62.40;99469.66;5048643;28;20247;-68
2023/08/15 10:23:27;;;;;;;1.00;0.90;;;;;;;26.74;62.14;99464.97;5048623;28;20224;-68
2023/08/15 10:25:55;;;;;;;0.80;0.80;;;;;;;26.73;63.66;99468.56;5048827;28;20285;-67
2023/08/15 10:28:22;;;;;;;1.20;1.10;;;;;;;26.67;64.62;99463.91;5048514;28;20209;-68
2023/08/15 10:30:50;;;;;;;0.80;0.80;;;;;;;26.59;65.26;99456.75;5050027;28;20201;-68
2023/08/15 10:33:19;;;;;;;2.23;1.40;;;;;;;26.60;65.27;99452.31;5048590;28;20681;-67
2023/08/15 10:36:06;;;;;;;0.77;0.77;;;;;;;26.66;65.40;99467.50;5048670;28;20278;-68
2023/08/15 10:38:36;;;;;;;1.20;1.20;;;;;;;26.68;65.62;99465.56;5047927;28;20247;-67
2023/08/15 10:41:05;;;;;;;1.40;1.30;;;;;;;26.60;66.26;99452.31;5048917;28;20505;-66
2023/08/15 10:43:34;;;;;;;0.50;0.50;;;;;;;26.79;66.07;99457.47;5046363;28;20208;-66
2023/08/15 10:46:04;;;;;;;1.07;0.97;;;;;;;26.77;66.65;99459.44;5050016;28;20274;-66
2023/08/15 10:48:41;;;;;;;1.47;1.03;;;;;;;26.80;66.58;99466.19;5050493;28;20205;-66
2023/08/15 10:51:16;;;;;;;2.27;0.90;;;;;;;26.79;68.12;99467.97;5048664;28;20643;-67
2023/08/15 10:53:43;;;;;;;1.50;1.10;;;;;;;26.73;68.75;99471.22;5048887;28;20204;-67
2023/08/15 10:56:10;;;;;;;1.00;1.00;;;;;;;26.60;68.71;99468.94;5049966;28;20270;-67
2023/08/15 10:58:38;;;;;;;0.87;0.87;;;;;;;26.40;70.00;99469.97;5051489;28;20632;-67
2023/08/15 11:01:07;;;;;;;1.00;1.00;;;;;;;26.20;72.08;99464.97;5049147;28;20730;-66
2023/08/15 11:03:35;;;;;;;0.70;0.70;;;;;;;26.28;71.82;99471.13;5050825;28;20254;-66
2023/08/15 11:06:09;;;;;;;0.83;0.83;;;;;;;26.38;71.60;99473.72;5050572;28;20286;-66
2023/08/15 11:08:41;;;;;;;3.80;1.40;;;;;;;26.45;71.69;99474.81;5047187;28;20431;-71
2023/08/15 11:11:08;;;;;;;1.60;1.03;;;;;;;26.52;72.83;99465.38;5044897;28;20488;-67
2023/08/15 11:13:37;;;;;;;1.47;1.37;;;;;;;26.52;72.67;99462.75;5044781;28;20459;-67
2023/08/15 11:16:06;;;;;;;1.07;1.00;;;;;;;26.44;73.73;99460.00;5049363;28;20208;-67
2023/08/15 11:18:33;;;;;;;1.20;0.97;;;;;;;26.39;74.63;99470.13;5047543;28;20255;-66
2023/08/15 11:21:01;;;;;;;0.80;0.80;;;;;;;26.42;75.03;99467.22;5048765;28;20653;-71
2023/08/15 11:23:28;;;;;;;2.70;0.80;;;;;;;26.41;75.92;99465.56;5048381;28;20675;-66
2023/08/15 11:26:01;;;;;;;2.20;0.80;;;;;;;26.32;76.56;99442.78;5044460;28;20220;-68
2023/08/15 11:28:28;;;;;;;0.70;0.70;;;;;;;26.43;75.45;99451.28;5048875;28;20266;-68
2023/08/15 11:30:55;;;;;;;5.37;1.30;;;;;;;26.41;76.87;99460.28;5047291;28;20211;-68
2023/08/15 11:33:25;;;;;;;1.00;1.00;;;;;;;26.34;76.81;99452.16;5047692;28;20208;-68
2023/08/15 11:35:51;;;;;;;1.00;1.00;;;;;;;26.33;77.32;99455.78;5046690;28;20228;-68
2023/08/15 11:38:19;;;;;;;1.00;1.00;;;;;;;26.32;76.82;99454.13;5046664;28;20208;-67
2023/08/15 11:40:46;;;;;;;4.03;1.33;;;;;;;26.22;76.54;99434.09;5049227;28;20724;-67
2023/08/15 11:43:13;;;;;;;1.00;0.90;;;;;;;26.42;76.16;99454.91;5047726;28;20750;-67